Providence, RI

03:02 EDT le 25 octobre 2014 (GMT -0400)
College Hill | Change Station
CLOSE
Current Station
Stations météorologiques personnelles
Location: Providence, RI
Altitude: 81 ft
Stations météo à proximité

Alt. 81 ft 41.82 °N, 71.40 °W | Updated 35 seconds ago

Ciel dégagé
Ciel dégagé
46.5 ° F
Paraît 46 ° F
N
0.0
Vent Variable Vent de OSO
Gusts 0.0 mph

Aujourd'hui
Haut(e) -- | Bas -- ° F
--% Risque de précip.
Hier
Haut(e) -- | Bas -- ° F
Precip. -- pouce
7:09 AM 5:49 PM
Nouvelle lune, 2% visible
Pression 29.78 pouce
Visibilité 10.0 Miles terrestres
Nuages Ciel dégagé
Refroidissement éolien 46 ° F
Point de rosée 43 ° F
Humidité 88%
Précipitations 0.00 pouce
Profondeur de la couche neigeuse Non disponible.
UV 0 sur 12
Pollen .10 sur 12
Ozone Bon
PM2.5 Bon
Flu Activity No Activity
METAR KPVD 250651Z 30004KT 10SM CLR 08/05 A2978 RMK AO2 SLP083 T00830050

More Conditions Fewer Conditions

Pression 29.78 pouce
Visibilité 10.0 Miles terrestres
Nuages Ciel dégagé
Refroidissement éolien 46 ° F
Point de rosée 43 ° F
Humidité 88%
Précipitations 0.00 pouce
Profondeur de la couche neigeuse Non disponible.
UV 0 sur 12
Pollen .10 sur 12
Ozone Bon
PM2.5 Bon
Flu Activity No Activity
METAR KPVD 250651Z 30004KT 10SM CLR 08/05 A2978 RMK AO2 SLP083 T00830050

More Conditions Fewer Conditions

10-Day Weather Forecast

Almanac

Astronomie

Oct. 25, 2014 Lever Coucher
Temps réel 07:09 EDT 17:49 EDT
Crépuscule civil 06:40 EDT 18:17 EDT
Crépuscule nautique 06:08 EDT 18:50 EDT
Crépuscule astronomique 05:36 EDT 19:22 EDT
Lune 08:46 EDT 19:08 EDT
Durée de lumière visible 11h 36m
Longueur du jour
10h 39m
Tomorrow will be 2m 35s shorter.
Nouvelle lune, 2% of the Moon is Illuminated
Aujourd'hui
Nouvelle lune
Oct 30
Premier quartier
Nov 6
Pleine lune
Nov 14
Dernier quartier
Nov 22
Nouveau

Extrêmes aujourd'hui

State Highs State Lows

Community

WunderPhotos

Upload Photos

1,764,789 Photos téléchargées !

Nearby

Qualité de l'air

  Qualité de l'air Indice de la qualité de l'air Polluant
Hier Bon
OZONE
Hier Bon
PM2.5
Actuel Bon
OZONE
Actuel Bon
PM2.5
samedi Bon
OZONE
samedi Bon
PM2.5
dimanche Bon
OZONE
dimanche Bon
PM2.5
lundi Bon
OZONE
lundi Bon
PM2.5

Épaisseur de neige

Station Depth Altitude
Pas de nouvelles chutes de neige

Activité sismique

Ville Distance Mag. Time & Date
No recent earthquake activity has been reported nearby.
Minimum magnitude displayed is 2.5.

Températures des eaux côtières

Lieu Température
Newport, RI 59.0 ° F
Quonset Point, RI 57.9 ° F
Conimicut Light, RI 59.0 ° F

Stations météo à proximité